sensor_id;sensor_type;location;lat;lon;timestamp;pressure;altitude;pressure_sealevel;temperature;humidity
64023;BME280;50264;52.088;5.296;2022-09-09T00:00:11;100701.0;;;16.2;92.04
64023;BME280;50264;52.088;5.296;2022-09-09T00:01:54;100696.0;;;16.2;92.55
64023;BME280;50264;52.088;5.296;2022-09-09T00:03:40;100700.0;;;16.18;92.02
64023;BME280;50264;52.088;5.296;2022-09-09T00:05:25;100696.0;;;16.09;92.15
64023;BME280;50264;52.088;5.296;2022-09-09T00:09:00;100692.0;;;16.15;91.86
64023;BME280;50264;52.088;5.296;2022-09-09T00:10:40;100698.0;;;16.11;92.01
64023;BME280;50264;52.088;5.296;2022-09-09T00:12:25;100697.0;;;16.03;91.96
64023;BME280;50264;52.088;5.296;2022-09-09T00:14:18;100692.0;;;16.05;92.7
64023;BME280;50264;52.088;5.296;2022-09-09T00:16:01;100689.0;;;16.05;93.0
64023;BME280;50264;52.088;5.296;2022-09-09T00:17:45;100690.0;;;16.05;92.74
64023;BME280;50264;52.088;5.296;2022-09-09T00:21:16;100692.0;;;16.0;91.97
64023;BME280;50264;52.088;5.296;2022-09-09T00:22:59;100684.0;;;16.09;91.84
64023;BME280;50264;52.088;5.296;2022-09-09T00:24:42;100686.0;;;16.0;91.32
64023;BME280;50264;52.088;5.296;2022-09-09T00:26:27;100685.0;;;16.02;91.7
64023;BME280;50264;52.088;5.296;2022-09-09T00:28:13;100687.0;;;16.02;92.01
64023;BME280;50264;52.088;5.296;2022-09-09T00:31:37;100683.0;;;15.99;91.61
64023;BME280;50264;52.088;5.296;2022-09-09T00:33:18;100684.0;;;15.9;91.86
64023;BME280;50264;52.088;5.296;2022-09-09T00:35:00;100678.0;;;15.93;91.46
64023;BME280;50264;52.088;5.296;2022-09-09T00:36:38;100684.0;;;15.95;92.01
64023;BME280;50264;52.088;5.296;2022-09-09T00:39:59;100685.0;;;15.88;92.01
64023;BME280;50264;52.088;5.296;2022-09-09T00:41:50;100680.0;;;15.93;91.55
64023;BME280;50264;52.088;5.296;2022-09-09T00:43:39;100682.0;;;15.81;91.7
64023;BME280;50264;52.088;5.296;2022-09-09T00:45:38;100678.0;;;15.76;91.74
64023;BME280;50264;52.088;5.296;2022-09-09T00:47:36;100680.0;;;15.76;92.24
64023;BME280;50264;52.088;5.296;2022-09-09T00:49:37;100680.0;;;15.77;92.02
64023;BME280;50264;52.088;5.296;2022-09-09T00:51:28;100682.0;;;15.72;92.2
64023;BME280;50264;52.088;5.296;2022-09-09T00:55:09;100684.0;;;15.72;91.92
64023;BME280;50264;52.088;5.296;2022-09-09T00:56:58;100683.0;;;15.79;91.95
64023;BME280;50264;52.088;5.296;2022-09-09T00:58:43;100684.0;;;15.77;91.18
64023;BME280;50264;52.088;5.296;2022-09-09T01:00:29;100693.0;;;15.62;91.52
64023;BME280;50264;52.088;5.296;2022-09-09T01:02:14;100691.0;;;15.65;91.45
64023;BME280;50264;52.088;5.296;2022-09-09T01:03:56;100692.0;;;15.66;91.39
64023;BME280;50264;52.088;5.296;2022-09-09T01:07:17;100693.0;;;15.62;91.88
64023;BME280;50264;52.088;5.296;2022-09-09T01:09:04;100693.0;;;15.55;92.06
64023;BME280;50264;52.088;5.296;2022-09-09T01:10:58;100688.0;;;15.54;92.24
64023;BME280;50264;52.088;5.296;2022-09-09T01:12:39;100689.0;;;15.58;91.84
64023;BME280;50264;52.088;5.296;2022-09-09T01:14:29;100688.0;;;15.62;91.36
64023;BME280;50264;52.088;5.296;2022-09-09T01:17:54;100689.0;;;15.54;91.41
64023;BME280;50264;52.088;5.296;2022-09-09T01:19:45;100686.0;;;15.52;91.6
64023;BME280;50264;52.088;5.296;2022-09-09T01:21:32;100682.0;;;15.47;91.74
64023;BME280;50264;52.088;5.296;2022-09-09T01:23:28;100681.0;;;15.47;91.7
64023;BME280;50264;52.088;5.296;2022-09-09T01:25:22;100683.0;;;15.4;91.7
64023;BME280;50264;52.088;5.296;2022-09-09T01:27:51;100680.0;;;15.46;92.14
64023;BME280;50264;52.088;5.296;2022-09-09T01:29:31;100672.0;;;15.42;91.77
64023;BME280;50264;52.088;5.296;2022-09-09T01:31:11;100672.0;;;15.47;91.25
64023;BME280;50264;52.088;5.296;2022-09-09T01:34:34;100672.0;;;15.32;91.3
64023;BME280;50264;52.088;5.296;2022-09-09T01:36:19;100673.0;;;15.28;91.98
64023;BME280;50264;52.088;5.296;2022-09-09T01:38:01;100670.0;;;15.3;91.66
64023;BME280;50264;52.088;5.296;2022-09-09T01:39:39;100673.0;;;15.26;92.52
64023;BME280;50264;52.088;5.296;2022-09-09T01:42:55;100674.0;;;15.14;92.04
64023;BME280;50264;52.088;5.296;2022-09-09T01:44:32;100678.0;;;15.11;91.69
64023;BME280;50264;52.088;5.296;2022-09-09T01:46:11;100682.0;;;15.08;92.13
64023;BME280;50264;52.088;5.296;2022-09-09T01:47:49;100684.0;;;15.01;91.81
64023;BME280;50264;52.088;5.296;2022-09-09T01:51:03;100680.0;;;14.99;92.15
64023;BME280;50264;52.088;5.296;2022-09-09T01:52:39;100676.0;;;14.94;92.25
64023;BME280;50264;52.088;5.296;2022-09-09T01:54:16;100673.0;;;14.9;92.11
64023;BME280;50264;52.088;5.296;2022-09-09T01:57:47;100671.0;;;15.03;92.82
64023;BME280;50264;52.088;5.296;2022-09-09T01:59:42;100670.0;;;15.07;92.51
64023;BME280;50264;52.088;5.296;2022-09-09T02:01:32;100663.0;;;15.08;92.02
64023;BME280;50264;52.088;5.296;2022-09-09T02:03:20;100663.0;;;15.06;92.34
64023;BME280;50264;52.088;5.296;2022-09-09T02:05:10;100659.0;;;15.03;92.16
64023;BME280;50264;52.088;5.296;2022-09-09T02:06:55;100651.0;;;15.02;92.04
64023;BME280;50264;52.088;5.296;2022-09-09T02:10:20;100651.0;;;15.15;91.44
64023;BME280;50264;52.088;5.296;2022-09-09T02:12:08;100646.0;;;15.02;92.12
64023;BME280;50264;52.088;5.296;2022-09-09T02:13:51;100648.0;;;14.87;91.7
64023;BME280;50264;52.088;5.296;2022-09-09T02:15:32;100647.0;;;14.88;91.86
64023;BME280;50264;52.088;5.296;2022-09-09T02:17:18;100646.0;;;14.91;92.21
64023;BME280;50264;52.088;5.296;2022-09-09T02:20:42;100644.0;;;14.86;91.94
64023;BME280;50264;52.088;5.296;2022-09-09T02:22:22;100646.0;;;14.8;92.46
64023;BME280;50264;52.088;5.296;2022-09-09T02:24:02;100647.0;;;14.79;92.61
64023;BME280;50264;52.088;5.296;2022-09-09T02:25:41;100650.0;;;14.86;92.37
64023;BME280;50264;52.088;5.296;2022-09-09T02:28:59;100649.0;;;14.81;92.38
64023;BME280;50264;52.088;5.296;2022-09-09T02:30:39;100651.0;;;14.73;91.84
64023;BME280;50264;52.088;5.296;2022-09-09T02:32:21;100648.0;;;14.66;92.3
64023;BME280;50264;52.088;5.296;2022-09-09T02:34:00;100648.0;;;14.59;92.41
64023;BME280;50264;52.088;5.296;2022-09-09T02:37:20;100647.0;;;14.67;92.75
64023;BME280;50264;52.088;5.296;2022-09-09T02:38:58;100643.0;;;14.62;92.69
64023;BME280;50264;52.088;5.296;2022-09-09T02:40:35;100647.0;;;14.53;92.21
64023;BME280;50264;52.088;5.296;2022-09-09T02:42:11;100648.0;;;14.54;92.3
64023;BME280;50264;52.088;5.296;2022-09-09T02:45:29;100650.0;;;14.57;92.56
64023;BME280;50264;52.088;5.296;2022-09-09T02:47:16;100643.0;;;14.62;92.6
64023;BME280;50264;52.088;5.296;2022-09-09T02:49:04;100644.0;;;14.57;92.85
64023;BME280;50264;52.088;5.296;2022-09-09T02:50:50;100643.0;;;14.58;92.21
64023;BME280;50264;52.088;5.296;2022-09-09T02:52:37;100638.0;;;14.57;92.27
64023;BME280;50264;52.088;5.296;2022-09-09T02:56:05;100641.0;;;14.55;92.7
64023;BME280;50264;52.088;5.296;2022-09-09T02:57:48;100642.0;;;14.51;92.42
64023;BME280;50264;52.088;5.296;2022-09-09T02:59:26;100637.0;;;14.58;92.71
64023;BME280;50264;52.088;5.296;2022-09-09T03:01:03;100638.0;;;14.67;92.46
64023;BME280;50264;52.088;5.296;2022-09-09T03:04:15;100637.0;;;14.64;92.66
64023;BME280;50264;52.088;5.296;2022-09-09T03:05:51;100641.0;;;14.69;92.68
64023;BME280;50264;52.088;5.296;2022-09-09T03:07:28;100640.0;;;14.6;93.03
64023;BME280;50264;52.088;5.296;2022-09-09T03:10:40;100637.0;;;14.61;93.36
64023;BME280;50264;52.088;5.296;2022-09-09T03:12:16;100638.0;;;14.55;92.76
64023;BME280;50264;52.088;5.296;2022-09-09T03:13:53;100638.0;;;14.57;93.07
64023;BME280;50264;52.088;5.296;2022-09-09T03:15:32;100635.0;;;14.66;93.0
64023;BME280;50264;52.088;5.296;2022-09-09T03:18:46;100637.0;;;14.64;92.1
64023;BME280;50264;52.088;5.296;2022-09-09T03:20:22;100633.0;;;14.59;92.47
64023;BME280;50264;52.088;5.296;2022-09-09T03:22:00;100632.0;;;14.7;92.95
64023;BME280;50264;52.088;5.296;2022-09-09T03:25:12;100628.0;;;14.68;92.97
64023;BME280;50264;52.088;5.296;2022-09-09T03:26:50;100633.0;;;14.72;92.78
64023;BME280;50264;52.088;5.296;2022-09-09T03:28:31;100631.0;;;14.6;91.94
64023;BME280;50264;52.088;5.296;2022-09-09T03:31:44;100636.0;;;14.59;91.79
64023;BME280;50264;52.088;5.296;2022-09-09T03:33:20;100631.0;;;14.6;92.38
64023;BME280;50264;52.088;5.296;2022-09-09T03:34:57;100631.0;;;14.62;93.36
64023;BME280;50264;52.088;5.296;2022-09-09T03:36:33;100631.0;;;14.68;92.92
64023;BME280;50264;52.088;5.296;2022-09-09T03:39:46;100633.0;;;14.72;92.19
64023;BME280;50264;52.088;5.296;2022-09-09T03:41:24;100630.0;;;14.67;92.05
64023;BME280;50264;52.088;5.296;2022-09-09T03:43:01;100632.0;;;14.64;91.67
64023;BME280;50264;52.088;5.296;2022-09-09T03:46:13;100628.0;;;14.65;91.84
64023;BME280;50264;52.088;5.296;2022-09-09T03:47:50;100630.0;;;14.67;92.54
64023;BME280;50264;52.088;5.296;2022-09-09T03:49:28;100628.0;;;14.65;92.45
64023;BME280;50264;52.088;5.296;2022-09-09T03:51:05;100624.0;;;14.61;92.69
64023;BME280;50264;52.088;5.296;2022-09-09T03:54:18;100628.0;;;14.61;92.47
64023;BME280;50264;52.088;5.296;2022-09-09T03:55:55;100627.0;;;14.63;91.88
64023;BME280;50264;52.088;5.296;2022-09-09T03:57:35;100626.0;;;14.57;92.37
64023;BME280;50264;52.088;5.296;2022-09-09T04:00:53;100630.0;;;14.56;92.62
64023;BME280;50264;52.088;5.296;2022-09-09T04:02:30;100626.0;;;14.64;93.07
64023;BME280;50264;52.088;5.296;2022-09-09T04:04:07;100625.0;;;14.64;92.54
64023;BME280;50264;52.088;5.296;2022-09-09T04:05:48;100624.0;;;14.6;92.63
64023;BME280;50264;52.088;5.296;2022-09-09T04:09:03;100622.0;;;14.54;92.96
64023;BME280;50264;52.088;5.296;2022-09-09T04:10:39;100618.0;;;14.62;93.18
64023;BME280;50264;52.088;5.296;2022-09-09T04:12:16;100622.0;;;14.67;92.68
64023;BME280;50264;52.088;5.296;2022-09-09T04:15:29;100623.0;;;14.76;92.51
64023;BME280;50264;52.088;5.296;2022-09-09T04:17:06;100622.0;;;14.66;91.5
64023;BME280;50264;52.088;5.296;2022-09-09T04:18:42;100618.0;;;14.66;92.46
64023;BME280;50264;52.088;5.296;2022-09-09T04:21:55;100615.0;;;14.68;93.19
64023;BME280;50264;52.088;5.296;2022-09-09T04:23:32;100613.0;;;14.71;93.24
64023;BME280;50264;52.088;5.296;2022-09-09T04:25:08;100612.0;;;14.71;93.03
64023;BME280;50264;52.088;5.296;2022-09-09T04:26:45;100618.0;;;14.64;92.25
64023;BME280;50264;52.088;5.296;2022-09-09T04:30:01;100620.0;;;14.63;92.23
64023;BME280;50264;52.088;5.296;2022-09-09T04:31:41;100609.0;;;14.66;93.05
64023;BME280;50264;52.088;5.296;2022-09-09T04:33:18;100609.0;;;14.79;93.17
64023;BME280;50264;52.088;5.296;2022-09-09T04:36:31;100606.0;;;14.83;93.38
64023;BME280;50264;52.088;5.296;2022-09-09T04:38:09;100605.0;;;14.87;92.95
64023;BME280;50264;52.088;5.296;2022-09-09T04:39:45;100601.0;;;14.81;93.11
64023;BME280;50264;52.088;5.296;2022-09-09T04:41:21;100600.0;;;14.82;92.41
64023;BME280;50264;52.088;5.296;2022-09-09T04:44:35;100595.0;;;14.79;92.41
64023;BME280;50264;52.088;5.296;2022-09-09T04:46:11;100598.0;;;14.75;93.62
64023;BME280;50264;52.088;5.296;2022-09-09T04:47:47;100592.0;;;14.79;92.98
64023;BME280;50264;52.088;5.296;2022-09-09T04:51:01;100592.0;;;14.74;93.04
64023;BME280;50264;52.088;5.296;2022-09-09T04:52:37;100596.0;;;14.81;92.77
64023;BME280;50264;52.088;5.296;2022-09-09T04:54:14;100601.0;;;14.91;92.82
64023;BME280;50264;52.088;5.296;2022-09-09T04:57:26;100598.0;;;14.87;92.38
64023;BME280;50264;52.088;5.296;2022-09-09T04:59:03;100598.0;;;14.83;92.77
64023;BME280;50264;52.088;5.296;2022-09-09T05:00:38;100600.0;;;14.81;92.74
64023;BME280;50264;52.088;5.296;2022-09-09T05:02:14;100596.0;;;14.85;92.87
64023;BME280;50264;52.088;5.296;2022-09-09T05:05:28;100602.0;;;14.84;92.64
64023;BME280;50264;52.088;5.296;2022-09-09T05:07:04;100605.0;;;14.85;92.74
64023;BME280;50264;52.088;5.296;2022-09-09T05:08:41;100605.0;;;14.88;91.73
64023;BME280;50264;52.088;5.296;2022-09-09T05:11:57;100599.0;;;14.88;92.09
64023;BME280;50264;52.088;5.296;2022-09-09T05:13:34;100595.0;;;14.87;92.18
64023;BME280;50264;52.088;5.296;2022-09-09T05:15:10;100597.0;;;14.86;92.74
64023;BME280;50264;52.088;5.296;2022-09-09T05:18:23;100593.0;;;14.93;92.48
64023;BME280;50264;52.088;5.296;2022-09-09T05:20:00;100588.0;;;14.87;92.75
64023;BME280;50264;52.088;5.296;2022-09-09T05:21:36;100593.0;;;14.83;92.99
64023;BME280;50264;52.088;5.296;2022-09-09T05:23:12;100589.0;;;14.8;93.08
64023;BME280;50264;52.088;5.296;2022-09-09T05:26:26;100585.0;;;14.83;92.83
64023;BME280;50264;52.088;5.296;2022-09-09T05:28:02;100586.0;;;14.8;92.27
64023;BME280;50264;52.088;5.296;2022-09-09T05:29:38;100589.0;;;14.85;92.41
64023;BME280;50264;52.088;5.296;2022-09-09T05:32:55;100585.0;;;14.78;93.0
64023;BME280;50264;52.088;5.296;2022-09-09T05:34:32;100585.0;;;14.76;92.94
64023;BME280;50264;52.088;5.296;2022-09-09T05:36:10;100593.0;;;14.75;92.61
64023;BME280;50264;52.088;5.296;2022-09-09T05:37:47;100587.0;;;14.74;92.95
64023;BME280;50264;52.088;5.296;2022-09-09T05:41:00;100586.0;;;14.84;93.71
64023;BME280;50264;52.088;5.296;2022-09-09T05:42:37;100581.0;;;14.87;93.18
64023;BME280;50264;52.088;5.296;2022-09-09T05:44:13;100585.0;;;14.81;93.0
64023;BME280;50264;52.088;5.296;2022-09-09T05:47:36;100582.0;;;14.82;94.02
64023;BME280;50264;52.088;5.296;2022-09-09T05:49:12;100575.0;;;14.82;93.7
64023;BME280;50264;52.088;5.296;2022-09-09T05:50:52;100580.0;;;14.89;93.87
64023;BME280;50264;52.088;5.296;2022-09-09T05:52:29;100585.0;;;14.93;93.9
64023;BME280;50264;52.088;5.296;2022-09-09T05:55:42;100591.0;;;14.91;93.59
64023;BME280;50264;52.088;5.296;2022-09-09T05:57:19;100591.0;;;14.97;93.98
64023;BME280;50264;52.088;5.296;2022-09-09T05:58:56;100594.0;;;15.06;93.75
64023;BME280;50264;52.088;5.296;2022-09-09T06:02:09;100599.0;;;15.07;93.89
64023;BME280;50264;52.088;5.296;2022-09-09T06:03:46;100597.0;;;15.21;93.89
64023;BME280;50264;52.088;5.296;2022-09-09T06:05:23;100602.0;;;15.24;93.57
64023;BME280;50264;52.088;5.296;2022-09-09T06:08:39;100602.0;;;15.29;93.76
64023;BME280;50264;52.088;5.296;2022-09-09T06:10:16;100600.0;;;15.33;93.58
64023;BME280;50264;52.088;5.296;2022-09-09T06:11:54;100594.0;;;15.37;93.93
64023;BME280;50264;52.088;5.296;2022-09-09T06:13:30;100600.0;;;15.45;93.68
64023;BME280;50264;52.088;5.296;2022-09-09T06:16:46;100595.0;;;15.46;93.0
64023;BME280;50264;52.088;5.296;2022-09-09T06:18:22;100593.0;;;15.48;93.5
64023;BME280;50264;52.088;5.296;2022-09-09T06:19:59;100594.0;;;15.54;93.09
64023;BME280;50264;52.088;5.296;2022-09-09T06:23:13;100589.0;;;15.48;92.95
64023;BME280;50264;52.088;5.296;2022-09-09T06:24:49;100590.0;;;15.55;93.46
64023;BME280;50264;52.088;5.296;2022-09-09T06:26:27;100589.0;;;15.62;93.5
64023;BME280;50264;52.088;5.296;2022-09-09T06:28:03;100590.0;;;15.75;93.25
64023;BME280;50264;52.088;5.296;2022-09-09T06:31:19;100588.0;;;15.84;93.2
64023;BME280;50264;52.088;5.296;2022-09-09T06:32:56;100586.0;;;15.84;92.91
64023;BME280;50264;52.088;5.296;2022-09-09T06:34:32;100580.0;;;15.94;93.54
64023;BME280;50264;52.088;5.296;2022-09-09T06:37:48;100586.0;;;15.85;92.98
64023;BME280;50264;52.088;5.296;2022-09-09T06:39:24;100585.0;;;15.85;93.66
64023;BME280;50264;52.088;5.296;2022-09-09T06:41:02;100578.0;;;15.98;93.65
64023;BME280;50264;52.088;5.296;2022-09-09T06:42:38;100577.0;;;16.0;93.88
64023;BME280;50264;52.088;5.296;2022-09-09T06:45:53;100572.0;;;16.09;93.83
64023;BME280;50264;52.088;5.296;2022-09-09T06:47:30;100572.0;;;16.13;93.62
64023;BME280;50264;52.088;5.296;2022-09-09T06:49:07;100575.0;;;16.09;93.48
64023;BME280;50264;52.088;5.296;2022-09-09T06:52:19;100573.0;;;16.16;92.78
64023;BME280;50264;52.088;5.296;2022-09-09T06:53:57;100574.0;;;16.25;93.2
64023;BME280;50264;52.088;5.296;2022-09-09T06:55:35;100575.0;;;16.34;92.92
64023;BME280;50264;52.088;5.296;2022-09-09T06:58:50;100574.0;;;16.43;93.2
64023;BME280;50264;52.088;5.296;2022-09-09T07:00:26;100574.0;;;16.37;92.92
64023;BME280;50264;52.088;5.296;2022-09-09T07:02:03;100578.0;;;16.5;93.35
64023;BME280;50264;52.088;5.296;2022-09-09T07:03:39;100582.0;;;16.48;92.53
64023;BME280;50264;52.088;5.296;2022-09-09T07:06:52;100578.0;;;16.5;93.0
64023;BME280;50264;52.088;5.296;2022-09-09T07:08:28;100574.0;;;16.55;93.04
64023;BME280;50264;52.088;5.296;2022-09-09T07:10:05;100576.0;;;16.59;92.08
64023;BME280;50264;52.088;5.296;2022-09-09T07:13:23;100575.0;;;16.77;92.6
64023;BME280;50264;52.088;5.296;2022-09-09T07:15:01;100578.0;;;16.7;90.93
64023;BME280;50264;52.088;5.296;2022-09-09T07:16:37;100574.0;;;16.82;92.03
64023;BME280;50264;52.088;5.296;2022-09-09T07:18:13;100570.0;;;16.84;91.97
64023;BME280;50264;52.088;5.296;2022-09-09T07:21:27;100570.0;;;16.86;91.51
64023;BME280;50264;52.088;5.296;2022-09-09T07:23:04;100576.0;;;16.87;91.77
64023;BME280;50264;52.088;5.296;2022-09-09T07:24:40;100575.0;;;16.96;91.03
64023;BME280;50264;52.088;5.296;2022-09-09T07:27:57;100577.0;;;16.98;90.93
64023;BME280;50264;52.088;5.296;2022-09-09T07:29:33;100581.0;;;17.06;90.95
64023;BME280;50264;52.088;5.296;2022-09-09T07:31:14;100578.0;;;17.05;91.56
64023;BME280;50264;52.088;5.296;2022-09-09T07:32:51;100583.0;;;17.12;90.9
64023;BME280;50264;52.088;5.296;2022-09-09T07:36:06;100583.0;;;17.21;90.18
64023;BME280;50264;52.088;5.296;2022-09-09T07:37:43;100576.0;;;17.25;90.04
64023;BME280;50264;52.088;5.296;2022-09-09T07:39:20;100582.0;;;17.41;89.66
64023;BME280;50264;52.088;5.296;2022-09-09T07:42:39;100583.0;;;17.47;89.32
64023;BME280;50264;52.088;5.296;2022-09-09T07:44:18;100590.0;;;17.55;91.07
64023;BME280;50264;52.088;5.296;2022-09-09T07:45:57;100596.0;;;17.61;89.12
64023;BME280;50264;52.088;5.296;2022-09-09T07:47:34;100591.0;;;17.5;88.01
64023;BME280;50264;52.088;5.296;2022-09-09T07:50:47;100594.0;;;17.55;88.92
64023;BME280;50264;52.088;5.296;2022-09-09T07:52:23;100599.0;;;17.45;88.84
64023;BME280;50264;52.088;5.296;2022-09-09T07:54:02;100593.0;;;17.53;87.69
64023;BME280;50264;52.088;5.296;2022-09-09T07:57:15;100593.0;;;17.5;88.28
64023;BME280;50264;52.088;5.296;2022-09-09T07:58:54;100593.0;;;17.38;87.0
64023;BME280;50264;52.088;5.296;2022-09-09T08:00:30;100595.0;;;17.45;88.19
64023;BME280;50264;52.088;5.296;2022-09-09T08:02:06;100597.0;;;17.55;88.16
64023;BME280;50264;52.088;5.296;2022-09-09T08:05:28;100598.0;;;17.47;86.91
64023;BME280;50264;52.088;5.296;2022-09-09T08:07:04;100598.0;;;17.52;87.86
64023;BME280;50264;52.088;5.296;2022-09-09T08:08:41;100588.0;;;17.45;87.67
64023;BME280;50264;52.088;5.296;2022-09-09T08:11:56;100593.0;;;17.52;86.2
64023;BME280;50264;52.088;5.296;2022-09-09T08:13:33;100594.0;;;17.52;87.02
64023;BME280;50264;52.088;5.296;2022-09-09T08:15:11;100593.0;;;17.48;88.96
64023;BME280;50264;52.088;5.296;2022-09-09T08:16:48;100593.0;;;17.46;85.06
64023;BME280;50264;52.088;5.296;2022-09-09T08:20:06;100591.0;;;17.45;88.24
64023;BME280;50264;52.088;5.296;2022-09-09T08:21:43;100598.0;;;17.39;87.49
64023;BME280;50264;52.088;5.296;2022-09-09T08:23:21;100600.0;;;17.41;87.35
64023;BME280;50264;52.088;5.296;2022-09-09T08:26:36;100597.0;;;17.43;86.66
64023;BME280;50264;52.088;5.296;2022-09-09T08:28:12;100599.0;;;17.45;86.24
64023;BME280;50264;52.088;5.296;2022-09-09T08:29:48;100601.0;;;17.38;88.02
64023;BME280;50264;52.088;5.296;2022-09-09T08:31:27;100599.0;;;17.46;87.56
64023;BME280;50264;52.088;5.296;2022-09-09T08:34:41;100603.0;;;17.5;87.44
64023;BME280;50264;52.088;5.296;2022-09-09T08:36:20;100608.0;;;17.56;87.36
64023;BME280;50264;52.088;5.296;2022-09-09T08:37:58;100603.0;;;17.57;87.55
64023;BME280;50264;52.088;5.296;2022-09-09T08:41:26;100605.0;;;17.55;86.02
64023;BME280;50264;52.088;5.296;2022-09-09T08:43:43;100607.0;;;17.59;87.16
64023;BME280;50264;52.088;5.296;2022-09-09T08:45:29;100611.0;;;17.71;88.24
64023;BME280;50264;52.088;5.296;2022-09-09T08:47:17;100612.0;;;17.78;86.75
64023;BME280;50264;52.088;5.296;2022-09-09T08:49:03;100617.0;;;17.79;85.79
64023;BME280;50264;52.088;5.296;2022-09-09T08:50:44;100617.0;;;17.86;86.75
64023;BME280;50264;52.088;5.296;2022-09-09T08:52:23;100620.0;;;17.86;83.84
64023;BME280;50264;52.088;5.296;2022-09-09T08:55:45;100618.0;;;17.81;86.45
64023;BME280;50264;52.088;5.296;2022-09-09T08:57:23;100619.0;;;17.77;84.9
64023;BME280;50264;52.088;5.296;2022-09-09T08:59:04;100619.0;;;17.78;84.99
64023;BME280;50264;52.088;5.296;2022-09-09T09:00:52;100614.0;;;17.7;85.65
64023;BME280;50264;52.088;5.296;2022-09-09T09:02:54;100619.0;;;17.66;86.42
64023;BME280;50264;52.088;5.296;2022-09-09T09:06:38;100619.0;;;17.61;85.46
64023;BME280;50264;52.088;5.296;2022-09-09T09:08:25;100624.0;;;17.63;86.39
64023;BME280;50264;52.088;5.296;2022-09-09T09:10:12;100624.0;;;17.53;86.38
64023;BME280;50264;52.088;5.296;2022-09-09T09:12:02;100625.0;;;17.64;86.05
64023;BME280;50264;52.088;5.296;2022-09-09T09:13:47;100624.0;;;17.59;85.6
64023;BME280;50264;52.088;5.296;2022-09-09T09:15:31;100621.0;;;17.57;84.27
64023;BME280;50264;52.088;5.296;2022-09-09T09:18:55;100618.0;;;17.61;86.81
64023;BME280;50264;52.088;5.296;2022-09-09T09:20:37;100623.0;;;17.61;86.24
64023;BME280;50264;52.088;5.296;2022-09-09T09:22:22;100626.0;;;17.64;87.39
64023;BME280;50264;52.088;5.296;2022-09-09T09:24:00;100627.0;;;17.61;87.4
64023;BME280;50264;52.088;5.296;2022-09-09T09:27:25;100627.0;;;17.55;85.12
64023;BME280;50264;52.088;5.296;2022-09-09T09:29:11;100630.0;;;17.68;86.52
64023;BME280;50264;52.088;5.296;2022-09-09T09:30:52;100631.0;;;17.64;86.42
64023;BME280;50264;52.088;5.296;2022-09-09T09:32:33;100631.0;;;17.71;86.1
64023;BME280;50264;52.088;5.296;2022-09-09T09:34:12;100630.0;;;17.61;84.08
64023;BME280;50264;52.088;5.296;2022-09-09T09:37:27;100630.0;;;17.7;85.92
64023;BME280;50264;52.088;5.296;2022-09-09T09:39:07;100628.0;;;17.71;84.45
64023;BME280;50264;52.088;5.296;2022-09-09T09:40:48;100630.0;;;17.75;84.96
64023;BME280;50264;52.088;5.296;2022-09-09T09:44:19;100628.0;;;17.77;85.44
64023;BME280;50264;52.088;5.296;2022-09-09T09:46:00;100634.0;;;17.72;85.24
64023;BME280;50264;52.088;5.296;2022-09-09T09:47:41;100643.0;;;17.77;87.38
64023;BME280;50264;52.088;5.296;2022-09-09T09:49:17;100638.0;;;17.77;87.94
64023;BME280;50264;52.088;5.296;2022-09-09T09:50:56;100635.0;;;17.7;87.17
64023;BME280;50264;52.088;5.296;2022-09-09T09:54:17;100638.0;;;17.7;88.9
64023;BME280;50264;52.088;5.296;2022-09-09T09:56:01;100634.0;;;17.59;89.33
64023;BME280;50264;52.088;5.296;2022-09-09T09:57:39;100631.0;;;17.52;90.15
64023;BME280;50264;52.088;5.296;2022-09-09T09:59:20;100627.0;;;17.55;90.97
64023;BME280;50264;52.088;5.296;2022-09-09T10:02:59;100630.0;;;17.59;91.35
64023;BME280;50264;52.088;5.296;2022-09-09T10:04:36;100626.0;;;17.61;90.67
64023;BME280;50264;52.088;5.296;2022-09-09T10:06:12;100624.0;;;17.57;90.91
64023;BME280;50264;52.088;5.296;2022-09-09T10:08:00;100630.0;;;17.48;89.28
64023;BME280;50264;52.088;5.296;2022-09-09T10:11:28;100623.0;;;17.62;89.79
64023;BME280;50264;52.088;5.296;2022-09-09T10:13:11;100630.0;;;17.56;89.59
64023;BME280;50264;52.088;5.296;2022-09-09T10:14:57;100627.0;;;17.52;90.26
64023;BME280;50264;52.088;5.296;2022-09-09T10:16:49;100625.0;;;17.52;89.58
64023;BME280;50264;52.088;5.296;2022-09-09T10:18:42;100630.0;;;17.5;88.43
64023;BME280;50264;52.088;5.296;2022-09-09T10:20:32;100633.0;;;17.37;89.21
64023;BME280;50264;52.088;5.296;2022-09-09T10:24:17;100631.0;;;17.5;89.99
64023;BME280;50264;52.088;5.296;2022-09-09T10:26:10;100638.0;;;17.54;89.52
64023;BME280;50264;52.088;5.296;2022-09-09T10:29:16;100635.0;;;17.55;89.93
64023;BME280;50264;52.088;5.296;2022-09-09T10:31:08;100639.0;;;17.61;90.91
64023;BME280;50264;52.088;5.296;2022-09-09T10:32:56;100636.0;;;17.56;90.54
64023;BME280;50264;52.088;5.296;2022-09-09T10:36:32;100636.0;;;17.54;90.24
64023;BME280;50264;52.088;5.296;2022-09-09T10:38:16;100638.0;;;17.53;91.37
64023;BME280;50264;52.088;5.296;2022-09-09T10:40:05;100637.0;;;17.61;91.29
64023;BME280;50264;52.088;5.296;2022-09-09T10:41:56;100637.0;;;17.63;91.24
64023;BME280;50264;52.088;5.296;2022-09-09T10:43:50;100634.0;;;17.66;91.49
64023;BME280;50264;52.088;5.296;2022-09-09T10:45:44;100632.0;;;17.7;91.28
64023;BME280;50264;52.088;5.296;2022-09-09T10:47:37;100632.0;;;17.82;92.97
64023;BME280;50264;52.088;5.296;2022-09-09T10:51:25;100631.0;;;17.86;92.05
64023;BME280;50264;52.088;5.296;2022-09-09T10:53:12;100628.0;;;17.73;89.75
64023;BME280;50264;52.088;5.296;2022-09-09T10:54:56;100630.0;;;17.86;91.93
64023;BME280;50264;52.088;5.296;2022-09-09T10:56:37;100627.0;;;17.95;92.27
64023;BME280;50264;52.088;5.296;2022-09-09T10:58:17;100620.0;;;18.2;93.09
64023;BME280;50264;52.088;5.296;2022-09-09T11:00:03;100620.0;;;18.29;92.86
64023;BME280;50264;52.088;5.296;2022-09-09T11:03:26;100621.0;;;18.34;89.62
64023;BME280;50264;52.088;5.296;2022-09-09T11:05:08;100625.0;;;18.55;90.68
64023;BME280;50264;52.088;5.296;2022-09-09T11:06:54;100621.0;;;18.39;88.08